Time;durP1;ratioP1;P1;durP2;ratioP2;P2;SDS_P1;SDS_P2;PMS_P1;PMS_P2;Temp;Humidity;BMP_temperature;BMP_pressure;BME280_temperature;BME280_humidity;BME280_pressure;Samples;Min_cycle;Max_cycle;Signal;HPM_P1;HPM_P2
2022/01/01 00:01:22;;;;;;;29.55;16.52;;;14.40;99.90;;;;;;5077198;28;20185;-68
2022/01/01 00:03:47;;;;;;;33.33;16.65;;;14.60;99.90;;;;;;5059586;28;20197;-69
2022/01/01 00:06:13;;;;;;;32.28;14.95;;;14.70;99.90;;;;;;5090656;28;20185;-68
2022/01/01 00:08:39;;;;;;;25.63;15.43;;;14.60;99.90;;;;;;5077080;28;20192;-68
2022/01/01 00:11:04;;;;;;;24.63;12.57;;;14.60;99.90;;;;;;5076659;28;20200;-68
2022/01/01 00:13:30;;;;;;;20.00;12.55;;;14.50;99.90;;;;;;5075885;28;20208;-69
2022/01/01 00:15:56;;;;;;;20.40;11.20;;;14.50;99.90;;;;;;5060505;28;20283;-68
2022/01/01 00:18:21;;;;;;;17.23;10.98;;;14.50;99.90;;;;;;5094274;28;20193;-68
2022/01/01 00:20:47;;;;;;;20.13;10.20;;;14.50;99.90;;;;;;5095402;28;20273;-68
2022/01/01 00:23:12;;;;;;;18.73;9.75;;;14.50;99.90;;;;;;5059623;28;20618;-68
2022/01/01 00:25:38;;;;;;;19.92;10.73;;;14.50;99.90;;;;;;5095055;28;20185;-68
2022/01/01 00:28:04;;;;;;;20.17;11.15;;;14.40;99.90;;;;;;5094725;28;20191;-68
2022/01/01 00:30:30;;;;;;;13.45;9.15;;;14.40;99.90;;;;;;5058546;28;20203;-68
2022/01/01 00:32:55;;;;;;;23.25;11.45;;;14.30;99.90;;;;;;5076192;28;20209;-68
2022/01/01 00:35:21;;;;;;;15.85;10.25;;;14.20;99.90;;;;;;5059370;28;20220;-68
2022/01/01 00:37:46;;;;;;;19.20;10.00;;;14.30;99.90;;;;;;5075590;28;20664;-68
2022/01/01 00:40:12;;;;;;;23.77;10.45;;;14.40;99.90;;;;;;5094991;28;20546;-69
2022/01/01 00:42:38;;;;;;;22.45;12.82;;;14.30;99.90;;;;;;5060577;28;20196;-68
2022/01/01 00:45:04;;;;;;;16.60;8.85;;;14.30;99.90;;;;;;5076403;28;20578;-68
2022/01/01 00:47:30;;;;;;;16.08;9.52;;;14.20;99.90;;;;;;5075687;28;20322;-68
2022/01/01 00:49:55;;;;;;;21.13;9.93;;;14.30;99.90;;;;;;5076266;28;20264;-68
2022/01/01 00:52:21;;;;;;;13.63;8.88;;;14.20;99.90;;;;;;5058607;28;20192;-68
2022/01/01 00:54:47;;;;;;;13.80;9.55;;;14.10;99.90;;;;;;5094729;28;20260;-68
2022/01/01 00:57:13;;;;;;;18.00;8.77;;;14.00;99.90;;;;;;5059444;28;20187;-68
2022/01/01 00:59:39;;;;;;;14.15;8.05;;;14.00;99.90;;;;;;5094229;28;20208;-68
2022/01/01 01:02:05;;;;;;;13.90;8.25;;;14.10;99.90;;;;;;5075420;28;20197;-68
2022/01/01 01:04:30;;;;;;;13.05;7.07;;;14.10;99.90;;;;;;5059413;28;20683;-69
2022/01/01 01:06:56;;;;;;;17.08;9.10;;;14.00;99.90;;;;;;5075422;28;20200;-68
2022/01/01 01:09:22;;;;;;;11.10;7.25;;;13.90;99.90;;;;;;5058505;28;20181;-68
2022/01/01 01:11:51;;;;;;;9.70;6.75;;;14.00;99.90;;;;;;5093985;28;20321;-68
2022/01/01 01:14:26;;;;;;;12.13;8.43;;;13.90;99.90;;;;;;5060247;28;20250;-68
2022/01/01 01:16:53;;;;;;;12.07;7.88;;;13.90;99.90;;;;;;5093283;28;20188;-68
2022/01/01 01:19:19;;;;;;;17.00;8.68;;;13.80;99.90;;;;;;5075588;28;20180;-68
2022/01/01 01:21:46;;;;;;;12.40;7.28;;;13.90;99.90;;;;;;5093820;28;20200;-68
2022/01/01 01:24:13;;;;;;;15.23;9.07;;;13.90;99.90;;;;;;5093369;28;20246;-68
2022/01/01 01:26:38;;;;;;;17.52;8.45;;;13.80;99.90;;;;;;5058456;28;20237;-69
2022/01/01 01:29:05;;;;;;;12.15;7.47;;;13.80;99.90;;;;;;5093698;28;20525;-68
2022/01/01 01:31:32;;;;;;;12.05;7.72;;;13.80;99.90;;;;;;5075426;28;20189;-69
2022/01/01 01:33:57;;;;;;;15.60;7.40;;;13.70;99.90;;;;;;5092512;28;20212;-68
2022/01/01 01:36:23;;;;;;;10.85;6.90;;;13.90;99.90;;;;;;5075385;28;20180;-68
2022/01/01 01:38:49;;;;;;;13.57;8.13;;;14.00;99.90;;;;;;5093362;28;20271;-68
2022/01/01 01:41:15;;;;;;;16.67;8.50;;;13.90;99.90;;;;;;5058315;28;20633;-68
2022/01/01 01:43:40;;;;;;;14.98;7.95;;;13.90;99.90;;;;;;5075259;28;20586;-68
2022/01/01 01:46:09;;;;;;;15.20;7.18;;;13.90;99.90;;;;;;5057706;28;20188;-68
2022/01/01 01:48:37;;;;;;;13.63;7.78;;;13.90;99.90;;;;;;5075596;28;20245;-68
2022/01/01 01:51:03;;;;;;;16.80;7.65;;;14.00;99.90;;;;;;5093311;28;20268;-68
2022/01/01 01:53:30;;;;;;;13.35;6.93;;;14.20;99.90;;;;;;5092294;28;20218;-68
2022/01/01 01:55:58;;;;;;;14.30;6.60;;;14.20;99.90;;;;;;5081663;28;20656;-68
2022/01/01 01:58:24;;;;;;;13.55;7.43;;;14.00;99.90;;;;;;5074194;28;20271;-68
2022/01/01 02:03:24;;;;;;;13.00;6.75;;;14.10;99.90;;;;;;5093077;28;20725;-68
2022/01/01 02:05:52;;;;;;;11.75;7.85;;;14.10;99.90;;;;;;5058267;28;20267;-68
2022/01/01 02:08:19;;;;;;;12.27;7.35;;;14.00;99.90;;;;;;5091694;28;20543;-68
2022/01/01 02:10:48;;;;;;;12.50;7.72;;;14.20;99.90;;;;;;5065385;28;20206;-68
2022/01/01 02:13:23;;;;;;;17.10;8.48;;;14.10;99.90;;;;;;5058533;28;20211;-68
2022/01/01 02:18:18;;;;;;;11.80;8.05;;;14.30;99.90;;;;;;5075132;28;20184;-68
2022/01/01 02:20:49;;;;;;;14.02;8.10;;;14.20;99.90;;;;;;5092747;28;20211;-68
2022/01/01 02:23:25;;;;;;;15.23;7.90;;;14.20;99.90;;;;;;5074861;28;20672;-68
2022/01/01 02:25:52;;;;;;;19.30;9.30;;;14.20;99.90;;;;;;5092663;28;20190;-68
2022/01/01 02:28:18;;;;;;;13.80;8.50;;;14.10;99.90;;;;;;5075017;28;20173;-68
2022/01/01 02:30:44;;;;;;;11.55;7.90;;;14.20;99.90;;;;;;5074515;28;20283;-68
2022/01/01 02:33:10;;;;;;;12.02;7.57;;;14.10;99.90;;;;;;5074491;28;20653;-68
2022/01/01 02:35:35;;;;;;;14.90;9.52;;;14.00;99.90;;;;;;5091756;28;20545;-68
2022/01/01 02:38:01;;;;;;;17.13;7.53;;;14.10;99.90;;;;;;5092368;28;20180;-68
2022/01/01 02:40:27;;;;;;;15.77;7.55;;;14.20;99.90;;;;;;5074448;28;20189;-68
2022/01/01 02:42:53;;;;;;;11.05;6.28;;;14.10;99.90;;;;;;5074105;28;20583;-68
2022/01/01 02:45:20;;;;;;;16.65;8.65;;;14.10;99.90;;;;;;5091662;28;20636;-68
2022/01/01 02:47:46;;;;;;;16.92;8.90;;;14.10;99.90;;;;;;5092603;28;20326;-68
2022/01/01 02:50:12;;;;;;;16.40;7.65;;;14.00;99.90;;;;;;5092369;28;20275;-68
2022/01/01 02:52:38;;;;;;;10.73;6.75;;;14.10;99.90;;;;;;5075787;28;20192;-68
2022/01/01 02:55:05;;;;;;;16.00;6.75;;;14.10;99.90;;;;;;5060526;28;20209;-68
2022/01/01 02:57:31;;;;;;;15.05;7.65;;;14.00;99.90;;;;;;5091050;28;20172;-68
2022/01/01 02:59:57;;;;;;;13.07;6.82;;;13.80;99.90;;;;;;5078456;28;20656;-68
2022/01/01 03:02:23;;;;;;;10.23;6.25;;;13.80;99.90;;;;;;5094362;28;20215;-68
2022/01/01 03:04:48;;;;;;;15.80;5.97;;;13.60;99.90;;;;;;5096076;28;20668;-68
2022/01/01 03:07:14;;;;;;;9.88;5.70;;;13.60;99.90;;;;;;5078218;28;20237;-68
2022/01/01 03:09:40;;;;;;;10.07;5.85;;;13.50;99.90;;;;;;5095128;28;20180;-67
2022/01/01 03:12:13;;;;;;;11.07;5.20;;;13.30;99.90;;;;;;5078158;28;20700;-68
2022/01/01 03:14:38;;;;;;;11.70;5.63;;;13.20;99.90;;;;;;5095898;28;20204;-68
2022/01/01 03:17:06;;;;;;;10.45;5.85;;;13.30;99.90;;;;;;5095988;28;20185;-69
2022/01/01 03:19:32;;;;;;;10.20;5.68;;;13.50;99.90;;;;;;5095857;28;20184;-68
2022/01/01 03:21:58;;;;;;;7.45;5.32;;;13.40;99.90;;;;;;5077821;28;20181;-68
2022/01/01 03:24:24;;;;;;;9.80;5.53;;;13.40;99.90;;;;;;5096077;28;20199;-68
2022/01/01 03:26:50;;;;;;;18.55;6.05;;;13.40;99.90;;;;;;5095720;28;20192;-69
2022/01/01 03:29:16;;;;;;;12.75;6.03;;;13.70;99.90;;;;;;5095617;28;20195;-68
2022/01/01 03:31:42;;;;;;;9.23;5.40;;;13.80;99.90;;;;;;5054075;28;20207;-68
2022/01/01 03:34:07;;;;;;;6.65;5.05;;;13.90;99.90;;;;;;5094938;28;20196;-68
2022/01/01 03:36:33;;;;;;;11.43;4.95;;;14.00;99.90;;;;;;5095697;28;20231;-68
2022/01/01 03:38:59;;;;;;;6.60;4.78;;;14.00;99.90;;;;;;5076482;28;20185;-68
2022/01/01 03:41:26;;;;;;;10.40;6.97;;;13.90;99.90;;;;;;5076933;28;20184;-68
2022/01/01 03:43:52;;;;;;;9.35;6.15;;;14.20;99.90;;;;;;5077526;28;20188;-68
2022/01/01 03:46:17;;;;;;;10.23;5.60;;;14.30;99.90;;;;;;5095335;28;20184;-68
2022/01/01 03:48:43;;;;;;;14.52;6.38;;;14.40;99.90;;;;;;5077334;28;20184;-69
2022/01/01 03:51:09;;;;;;;13.18;7.45;;;14.20;99.90;;;;;;5095892;28;20189;-67
2022/01/01 03:53:35;;;;;;;12.32;6.25;;;14.20;99.90;;;;;;5095436;28;20238;-68
2022/01/01 03:56:00;;;;;;;11.80;6.10;;;14.20;99.90;;;;;;5077563;28;20660;-68
2022/01/01 03:58:26;;;;;;;11.93;6.20;;;14.10;99.90;;;;;;5060560;28;20194;-68
2022/01/01 04:00:52;;;;;;;13.93;6.25;;;14.00;99.90;;;;;;5083709;28;20196;-68
2022/01/01 04:03:18;;;;;;;10.38;5.65;;;13.80;99.90;;;;;;5077082;28;20596;-68
2022/01/01 04:05:45;;;;;;;9.93;6.07;;;13.70;99.90;;;;;;5076027;28;20710;-68
2022/01/01 04:08:12;;;;;;;9.88;6.30;;;13.70;99.90;;;;;;5077067;28;20181;-68
2022/01/01 04:10:39;;;;;;;11.43;6.80;;;13.70;99.90;;;;;;5095900;28;20203;-69
2022/01/01 04:13:06;;;;;;;14.10;7.38;;;13.70;99.90;;;;;;5094922;28;20278;-68
2022/01/01 04:15:33;;;;;;;14.02;6.63;;;13.50;99.90;;;;;;5076800;28;20216;-68
2022/01/01 04:18:03;;;;;;;11.27;8.10;;;13.40;99.90;;;;;;5077119;28;20188;-68
2022/01/01 04:20:29;;;;;;;11.38;6.00;;;13.50;99.90;;;;;;5094991;28;20188;-68
2022/01/01 04:22:56;;;;;;;9.40;5.68;;;13.50;99.90;;;;;;5076949;28;20177;-68
2022/01/01 04:25:23;;;;;;;9.48;5.95;;;13.30;99.90;;;;;;5094935;28;20199;-68
2022/01/01 04:27:51;;;;;;;15.38;6.30;;;13.40;99.90;;;;;;5076515;28;20185;-68
2022/01/01 04:30:17;;;;;;;12.68;6.85;;;13.40;99.90;;;;;;5076676;28;20184;-68
2022/01/01 04:32:43;;;;;;;12.68;6.22;;;13.40;99.90;;;;;;5095036;28;20177;-68
2022/01/01 04:35:09;;;;;;;10.82;6.30;;;13.30;99.90;;;;;;5076551;28;20645;-68
2022/01/01 04:37:35;;;;;;;9.70;5.72;;;13.30;99.90;;;;;;5094052;28;20211;-68
2022/01/01 04:40:02;;;;;;;11.23;6.35;;;13.30;99.90;;;;;;5094920;28;20184;-68
2022/01/01 04:42:29;;;;;;;8.95;6.13;;;13.20;99.90;;;;;;5075776;28;20275;-68
2022/01/01 04:44:55;;;;;;;11.88;5.45;;;13.10;99.90;;;;;;5076151;28;20192;-68
2022/01/01 04:47:21;;;;;;;10.40;5.85;;;13.10;99.90;;;;;;5094703;28;20193;-68
2022/01/01 04:49:46;;;;;;;17.10;7.95;;;13.00;99.90;;;;;;5094887;28;20551;-68
2022/01/01 04:52:12;;;;;;;13.73;6.30;;;13.10;99.90;;;;;;5093378;28;20185;-68
2022/01/01 04:54:41;;;;;;;16.13;6.15;;;13.20;99.90;;;;;;5075311;28;20468;-68
2022/01/01 04:57:07;;;;;;;9.90;5.55;;;13.20;99.90;;;;;;5077114;28;20677;-68
2022/01/01 04:59:35;;;;;;;12.18;6.00;;;13.20;99.90;;;;;;5094321;28;20188;-68
2022/01/01 05:02:01;;;;;;;10.55;6.00;;;13.10;99.90;;;;;;5094098;28;20258;-70
2022/01/01 05:04:26;;;;;;;9.02;5.90;;;13.10;99.90;;;;;;5093000;28;20192;-68
2022/01/01 05:06:53;;;;;;;11.52;6.63;;;13.20;99.90;;;;;;5076922;28;20238;-68
2022/01/01 05:09:19;;;;;;;13.32;7.15;;;13.30;99.90;;;;;;5075152;28;20274;-68
2022/01/01 05:11:46;;;;;;;11.70;6.90;;;13.30;99.90;;;;;;5076627;28;20630;-68
2022/01/01 05:14:13;;;;;;;13.82;6.18;;;13.50;99.90;;;;;;5058472;28;20240;-68
2022/01/01 05:16:40;;;;;;;12.70;7.10;;;13.70;99.90;;;;;;5093225;28;20195;-68
2022/01/01 05:19:06;;;;;;;10.63;6.32;;;13.70;99.90;;;;;;5042758;28;20612;-68
2022/01/01 05:21:34;;;;;;;13.18;6.38;;;13.70;99.90;;;;;;5092968;28;20185;-68
2022/01/01 05:24:01;;;;;;;13.00;6.32;;;13.60;99.90;;;;;;5076256;28;20215;-68
2022/01/01 05:26:27;;;;;;;15.25;6.22;;;13.70;99.90;;;;;;5093345;28;20233;-68
2022/01/01 05:28:53;;;;;;;10.05;5.78;;;13.70;99.90;;;;;;5074594;28;20185;-68
2022/01/01 05:31:19;;;;;;;10.05;6.00;;;13.60;99.90;;;;;;5075562;28;20238;-68
2022/01/01 05:33:49;;;;;;;12.57;6.60;;;13.60;99.90;;;;;;5058256;28;20227;-68
2022/01/01 05:36:15;;;;;;;8.13;5.88;;;13.70;99.90;;;;;;5075894;28;20188;-68
2022/01/01 05:38:42;;;;;;;9.38;4.82;;;13.80;99.90;;;;;;5061438;28;20270;-68
2022/01/01 05:41:07;;;;;;;10.35;5.90;;;13.70;99.90;;;;;;5086697;28;20185;-69
2022/01/01 05:43:33;;;;;;;11.13;6.20;;;13.60;99.90;;;;;;5093384;28;20598;-68
2022/01/01 05:45:59;;;;;;;17.30;7.75;;;13.80;99.90;;;;;;5093568;28;20653;-68
2022/01/01 05:48:25;;;;;;;15.30;6.30;;;13.90;99.90;;;;;;5093220;28;20553;-68
2022/01/01 05:50:51;;;;;;;8.85;5.75;;;13.80;99.90;;;;;;5058580;28;20234;-68
2022/01/01 05:53:17;;;;;;;12.00;6.07;;;13.80;99.90;;;;;;5058330;28;20216;-67
2022/01/01 05:55:42;;;;;;;8.27;6.22;;;13.60;99.90;;;;;;5075060;28;20188;-68
2022/01/01 05:58:08;;;;;;;10.10;6.45;;;13.40;99.90;;;;;;5074051;28;20181;-68
2022/01/01 06:00:35;;;;;;;13.60;6.15;;;13.50;99.90;;;;;;5093117;28;20637;-68
2022/01/01 06:03:01;;;;;;;10.73;5.60;;;13.40;99.90;;;;;;5093092;28;20188;-68
2022/01/01 06:05:28;;;;;;;6.97;5.75;;;13.50;99.90;;;;;;5092109;28;20188;-68
2022/01/01 06:07:55;;;;;;;7.43;6.03;;;13.50;99.90;;;;;;5092608;28;20237;-68
2022/01/01 06:10:21;;;;;;;15.70;7.88;;;13.60;99.90;;;;;;5091758;28;20200;-68
2022/01/01 06:12:47;;;;;;;10.82;6.15;;;13.60;99.90;;;;;;5092545;28;20223;-68
2022/01/01 06:15:13;;;;;;;13.68;7.22;;;13.60;99.90;;;;;;5092803;28;20661;-68
2022/01/01 06:17:38;;;;;;;17.20;7.53;;;13.60;99.90;;;;;;5075095;28;20549;-68
2022/01/01 06:20:05;;;;;;;12.88;6.63;;;13.80;99.90;;;;;;5074576;28;20185;-68
2022/01/01 06:22:31;;;;;;;14.23;6.97;;;13.80;99.90;;;;;;5092677;28;20199;-69
2022/01/01 06:24:56;;;;;;;14.10;6.95;;;13.60;99.90;;;;;;5074608;28;20203;-68
2022/01/01 06:27:22;;;;;;;16.88;6.60;;;13.70;99.90;;;;;;5073896;28;20189;-68
2022/01/01 06:29:48;;;;;;;16.38;7.50;;;13.80;99.90;;;;;;5074390;28;20191;-68
2022/01/01 06:32:14;;;;;;;11.15;7.00;;;13.70;99.90;;;;;;5074590;28;20238;-68
2022/01/01 06:34:40;;;;;;;9.00;6.15;;;13.70;99.90;;;;;;5073531;28;20637;-68
2022/01/01 06:37:05;;;;;;;9.45;6.43;;;13.70;99.90;;;;;;5074555;28;20192;-68
2022/01/01 06:39:31;;;;;;;13.27;6.88;;;13.60;99.90;;;;;;5092738;28;20184;-68
2022/01/01 06:41:57;;;;;;;12.40;7.32;;;13.50;99.90;;;;;;5074454;28;20219;-69
2022/01/01 06:44:22;;;;;;;14.07;7.63;;;13.50;99.90;;;;;;5074574;28;20235;-68
2022/01/01 06:46:48;;;;;;;11.77;6.93;;;13.30;99.90;;;;;;5056297;28;20176;-68
2022/01/01 06:49:15;;;;;;;11.75;7.82;;;13.30;99.90;;;;;;5092608;28;20379;-68
2022/01/01 06:51:40;;;;;;;12.80;6.50;;;13.30;99.90;;;;;;5092623;28;20181;-68
2022/01/01 06:54:06;;;;;;;12.13;7.32;;;13.20;99.90;;;;;;5091689;28;21091;-68
2022/01/01 06:56:32;;;;;;;9.93;6.15;;;13.20;99.90;;;;;;5075536;28;20181;-68
2022/01/01 06:58:58;;;;;;;10.02;6.78;;;13.10;99.90;;;;;;5073699;28;20184;-67
2022/01/01 07:01:23;;;;;;;10.27;7.80;;;13.10;99.90;;;;;;5057266;28;20208;-69
2022/01/01 07:03:49;;;;;;;12.23;7.68;;;12.90;99.90;;;;;;5092313;28;20653;-68
2022/01/01 07:06:15;;;;;;;14.70;7.88;;;12.80;99.90;;;;;;5057717;28;20184;-68
2022/01/01 07:08:40;;;;;;;13.52;9.05;;;12.80;99.90;;;;;;5091081;28;20597;-68
2022/01/01 07:11:06;;;;;;;10.27;7.57;;;12.80;99.90;;;;;;5092045;28;20326;-68
2022/01/01 07:13:32;;;;;;;15.30;8.32;;;12.80;99.90;;;;;;5057376;28;20266;-68
2022/01/01 07:15:57;;;;;;;11.27;7.70;;;12.60;99.90;;;;;;5073403;28;20626;-68
2022/01/01 07:18:23;;;;;;;11.32;8.55;;;12.60;99.90;;;;;;5074314;28;20555;-68
2022/01/01 07:20:49;;;;;;;17.42;8.50;;;12.70;99.90;;;;;;5073447;28;20185;-68
2022/01/01 07:23:15;;;;;;;18.98;9.88;;;12.60;99.90;;;;;;5092297;28;20184;-68
2022/01/01 07:25:41;;;;;;;17.30;9.40;;;12.50;99.90;;;;;;5057457;28;20634;-68
2022/01/01 07:28:07;;;;;;;22.85;10.73;;;12.50;99.90;;;;;;5092486;28;20193;-68
2022/01/01 07:30:33;;;;;;;17.15;9.07;;;12.60;99.90;;;;;;5061081;28;20188;-68
2022/01/01 07:32:59;;;;;;;19.95;10.40;;;12.50;99.90;;;;;;5082132;28;20205;-67
2022/01/01 07:35:24;;;;;;;15.18;9.45;;;12.60;99.90;;;;;;5060646;28;20197;-68
2022/01/01 07:37:52;;;;;;;14.98;10.10;;;12.50;99.90;;;;;;5089185;28;20486;-68
2022/01/01 07:40:18;;;;;;;23.27;10.32;;;12.30;99.90;;;;;;5094878;28;20189;-68
2022/01/01 07:42:45;;;;;;;16.77;9.13;;;12.40;99.90;;;;;;5096137;28;20637;-68
2022/01/01 07:45:12;;;;;;;16.45;9.38;;;12.50;99.90;;;;;;5095589;28;20656;-68
2022/01/01 07:47:38;;;;;;;17.35;7.80;;;12.40;99.90;;;;;;5094748;28;20267;-68
2022/01/01 07:50:06;;;;;;;18.88;10.20;;;12.30;99.90;;;;;;5095547;28;20180;-67
2022/01/01 07:52:32;;;;;;;15.95;8.95;;;12.40;99.90;;;;;;5078283;28;20544;-68
2022/01/01 07:54:58;;;;;;;23.65;10.50;;;12.40;99.90;;;;;;5095450;28;20236;-68
2022/01/01 07:57:23;;;;;;;16.73;9.43;;;12.40;99.90;;;;;;5076611;28;20601;-67
2022/01/01 07:59:49;;;;;;;15.95;10.40;;;12.40;99.90;;;;;;5077306;28;20187;-68
2022/01/01 08:02:15;;;;;;;18.65;8.82;;;12.30;99.90;;;;;;5095276;28;20227;-68
2022/01/01 08:04:40;;;;;;;17.13;8.85;;;12.30;99.90;;;;;;5077644;28;20204;-68
2022/01/01 08:07:06;;;;;;;16.55;10.07;;;12.30;99.90;;;;;;5067423;28;20189;-68
2022/01/01 08:09:32;;;;;;;15.65;8.68;;;12.40;99.90;;;;;;5094851;28;20191;-68
2022/01/01 08:11:57;;;;;;;14.65;8.68;;;12.50;99.90;;;;;;5059278;28;20259;-68
2022/01/01 08:14:23;;;;;;;12.95;8.45;;;12.50;99.90;;;;;;5095327;28;20321;-67
2022/01/01 08:17:09;;;;;;;20.10;9.32;;;12.50;99.90;;;;;;5060060;28;20241;-68
2022/01/01 08:19:35;;;;;;;19.85;9.20;;;12.50;99.90;;;;;;5094279;28;20205;-68
2022/01/01 08:22:01;;;;;;;15.55;8.60;;;12.40;99.90;;;;;;5076820;28;20215;-68
2022/01/01 08:24:27;;;;;;;16.35;9.70;;;12.30;99.90;;;;;;5094013;28;20653;-68
2022/01/01 08:26:53;;;;;;;12.75;8.85;;;12.40;99.90;;;;;;5076776;28;20192;-68
2022/01/01 08:29:18;;;;;;;16.23;9.23;;;12.30;99.90;;;;;;5094408;28;20187;-69
2022/01/01 08:31:44;;;;;;;14.88;8.52;;;12.40;99.90;;;;;;5093816;28;20268;-68
2022/01/01 08:34:10;;;;;;;19.45;12.05;;;12.50;99.90;;;;;;5077593;28;20207;-68
2022/01/01 08:36:36;;;;;;;18.40;10.05;;;12.40;99.90;;;;;;5094779;28;20624;-67
2022/01/01 08:39:05;;;;;;;14.93;9.77;;;12.30;99.90;;;;;;5094849;28;20226;-67
2022/01/01 08:41:31;;;;;;;16.38;10.18;;;12.30;99.90;;;;;;5076269;28;20188;-68
2022/01/01 08:43:57;;;;;;;18.02;11.20;;;12.30;99.90;;;;;;5094757;28;20718;-68
2022/01/01 08:46:23;;;;;;;18.45;10.95;;;12.30;99.90;;;;;;5094870;28;20192;-68
2022/01/01 08:48:48;;;;;;;19.92;10.63;;;12.30;99.90;;;;;;5094170;28;20216;-68
2022/01/01 08:51:19;;;;;;;16.70;9.98;;;12.40;99.90;;;;;;5075453;28;20192;-67
2022/01/01 08:53:46;;;;;;;18.65;10.50;;;12.40;99.90;;;;;;5092172;28;20197;-67
2022/01/01 08:56:12;;;;;;;15.20;10.60;;;12.50;99.90;;;;;;5094392;28;20188;-68
2022/01/01 08:58:41;;;;;;;22.40;11.57;;;12.60;99.90;;;;;;5076539;28;20548;-68
2022/01/01 09:01:07;;;;;;;17.90;9.70;;;12.60;99.90;;;;;;5093321;28;20685;-68
2022/01/01 09:03:37;;;;;;;23.13;10.60;;;12.70;99.90;;;;;;5094542;28;20216;-68
2022/01/01 09:06:05;;;;;;;19.13;10.02;;;12.90;99.90;;;;;;5094081;28;20175;-68
2022/01/01 09:08:32;;;;;;;16.80;10.40;;;12.80;99.90;;;;;;5076025;28;20188;-68
2022/01/01 09:10:58;;;;;;;21.77;9.40;;;12.80;99.90;;;;;;5094753;28;20189;-68
2022/01/01 09:13:24;;;;;;;18.27;10.95;;;12.80;99.90;;;;;;5094009;28;20208;-68
2022/01/01 09:15:49;;;;;;;21.20;12.20;;;13.00;99.90;;;;;;5074992;28;20211;-68
2022/01/01 09:18:15;;;;;;;18.48;11.48;;;12.90;99.90;;;;;;5094196;28;20176;-68
2022/01/01 09:20:41;;;;;;;16.20;10.30;;;12.80;99.90;;;;;;5061896;28;21808;-68
2022/01/01 09:23:07;;;;;;;15.80;10.38;;;12.80;99.90;;;;;;5093698;28;20212;-68
2022/01/01 09:25:33;;;;;;;17.83;10.30;;;12.80;99.90;;;;;;5094251;28;20523;-68
2022/01/01 09:27:59;;;;;;;17.02;10.40;;;12.80;99.90;;;;;;5093544;28;20650;-68
2022/01/01 09:30:25;;;;;;;18.23;11.48;;;12.80;99.90;;;;;;5094076;28;20200;-68
2022/01/01 09:32:51;;;;;;;15.70;10.88;;;12.90;99.90;;;;;;5075306;28;20192;-68
2022/01/01 09:35:18;;;;;;;16.33;10.60;;;13.00;99.90;;;;;;5093540;28;20193;-68
2022/01/01 09:37:44;;;;;;;23.42;14.35;;;13.10;99.90;;;;;;5093014;28;20180;-68
2022/01/01 09:40:10;;;;;;;16.70;10.15;;;13.10;99.90;;;;;;5093970;28;20246;-68
2022/01/01 09:42:39;;;;;;;19.48;13.63;;;13.20;99.90;;;;;;5066304;28;20633;-68
2022/01/01 09:45:09;;;;;;;19.80;11.88;;;13.20;99.90;;;;;;5064619;28;20688;-68
2022/01/01 09:47:36;;;;;;;16.65;11.75;;;13.30;99.90;;;;;;5081715;28;20184;-68
2022/01/01 09:50:04;;;;;;;18.58;12.05;;;13.40;99.90;;;;;;5075255;28;20185;-68
2022/01/01 09:52:30;;;;;;;20.63;12.13;;;13.10;99.90;;;;;;5093421;28;20189;-68
2022/01/01 09:54:55;;;;;;;21.55;11.07;;;12.90;99.90;;;;;;5074649;28;20646;-68
2022/01/01 09:57:22;;;;;;;17.13;11.20;;;12.90;99.90;;;;;;5093204;28;20210;-68
2022/01/01 09:59:48;;;;;;;16.08;11.75;;;12.80;99.90;;;;;;5093146;28;20191;-68
2022/01/01 10:02:14;;;;;;;20.77;12.80;;;12.90;99.90;;;;;;5074213;28;20184;-68
2022/01/01 10:04:48;;;;;;;20.40;11.88;;;13.00;99.90;;;;;;5074884;28;20219;-68
2022/01/01 10:07:14;;;;;;;17.05;11.98;;;13.30;99.90;;;;;;5093009;28;20211;-68
2022/01/01 10:09:40;;;;;;;21.10;13.45;;;13.40;99.90;;;;;;5092693;28;20188;-67
2022/01/01 10:12:10;;;;;;;15.63;10.45;;;13.40;99.90;;;;;;5092938;28;20243;-68
2022/01/01 10:14:35;;;;;;;13.55;8.93;;;13.50;99.90;;;;;;5075027;28;20201;-68
2022/01/01 10:17:08;;;;;;;13.60;9.88;;;13.50;99.90;;;;;;5073690;28;20194;-68
2022/01/01 10:19:33;;;;;;;11.82;8.25;;;13.40;99.90;;;;;;5074841;28;20649;-68
2022/01/01 10:22:03;;;;;;;16.17;8.02;;;13.30;99.90;;;;;;5057201;28;20195;-68
2022/01/01 10:27:42;;;;;;;14.82;7.15;;;13.30;99.90;;;;;;5093308;28;20509;-68
2022/01/01 10:30:02;;;;;;;12.60;8.27;;;13.50;99.90;;;;;;5076811;28;20203;-68
2022/01/01 10:32:27;;;;;;;12.73;8.50;;;13.60;99.90;;;;;;5092638;28;20303;-68
2022/01/01 10:34:53;;;;;;;9.55;6.28;;;13.60;99.90;;;;;;5074363;28;20291;-68
2022/01/01 10:37:32;;;;;;;12.75;7.30;;;13.50;99.90;;;;;;5091674;28;20226;-68
2022/01/01 10:39:58;;;;;;;11.68;7.35;;;13.50;99.90;;;;;;5092460;28;20238;-68
2022/01/01 10:42:24;;;;;;;10.50;7.05;;;13.40;99.90;;;;;;5073720;28;20180;-68
2022/01/01 10:44:52;;;;;;;10.70;6.28;;;13.50;99.90;;;;;;5071351;28;20199;-67
2022/01/01 10:47:25;;;;;;;9.88;6.50;;;13.50;99.90;;;;;;5073437;28;20223;-67
2022/01/01 10:52:29;;;;;;;8.85;6.00;;;13.70;99.90;;;;;;5075146;28;20188;-65
2022/01/01 10:54:56;;;;;;;8.48;5.95;;;13.70;99.90;;;;;;5072650;28;20595;-66
2022/01/01 10:57:28;;;;;;;9.55;7.10;;;13.70;99.90;;;;;;5083320;28;20180;-68
2022/01/01 11:00:07;;;;;;;7.05;5.63;;;13.70;99.90;;;;;;5092381;28;20183;-68
2022/01/01 11:02:34;;;;;;;7.80;5.63;;;13.70;99.90;;;;;;5074591;28;20206;-61
2022/01/01 11:05:00;;;;;;;4.95;4.32;;;13.90;99.90;;;;;;5074522;28;20220;-64
2022/01/01 11:07:30;;;;;;;9.55;5.25;;;13.90;99.90;;;;;;5090614;28;20209;-63
2022/01/01 11:09:57;;;;;;;9.50;6.65;;;13.90;99.90;;;;;;5084849;28;20562;-67
2022/01/01 11:12:28;;;;;;;8.82;5.15;;;13.70;99.90;;;;;;5080187;28;20177;-67
2022/01/01 11:14:55;;;;;;;14.82;6.18;;;13.80;99.90;;;;;;5085120;28;20204;-67
2022/01/01 11:17:21;;;;;;;7.95;5.03;;;13.90;99.90;;;;;;5096301;28;20739;-67
2022/01/01 11:19:47;;;;;;;7.25;4.20;;;13.90;99.90;;;;;;5078006;28;20287;-67
2022/01/01 11:22:14;;;;;;;7.85;4.97;;;13.80;99.90;;;;;;5061327;28;20267;-67
2022/01/01 11:24:41;;;;;;;6.70;5.75;;;13.90;99.90;;;;;;5096431;28;20195;-67
2022/01/01 11:27:07;;;;;;;8.20;6.32;;;14.00;99.90;;;;;;5096148;28;20188;-67
2022/01/01 11:29:34;;;;;;;9.95;6.03;;;13.90;99.90;;;;;;5077316;28;20189;-67
2022/01/01 11:32:02;;;;;;;7.22;4.30;;;13.90;99.90;;;;;;5077411;28;20188;-67
2022/01/01 11:34:36;;;;;;;8.50;5.22;;;14.00;99.90;;;;;;5045878;28;20208;-67
2022/01/01 11:37:02;;;;;;;7.70;4.78;;;14.00;99.90;;;;;;5095665;28;20543;-66
2022/01/01 11:39:28;;;;;;;5.18;4.15;;;14.00;99.90;;;;;;5076462;28;20199;-66
2022/01/01 11:42:15;;;;;;;5.35;4.78;;;14.10;99.90;;;;;;5075520;28;20189;-67
2022/01/01 11:44:48;;;;;;;6.63;4.15;;;14.30;99.90;;;;;;5086397;28;20185;-62
2022/01/01 11:47:16;;;;;;;5.80;4.65;;;14.30;99.90;;;;;;5094875;28;20203;-66
2022/01/01 11:49:42;;;;;;;8.23;4.18;;;14.50;99.90;;;;;;5078004;28;20194;-67
2022/01/01 11:52:08;;;;;;;7.03;4.40;;;14.40;99.90;;;;;;5077495;28;20652;-68
2022/01/01 11:54:42;;;;;;;4.63;3.47;;;14.60;99.90;;;;;;5069566;28;20208;-67
2022/01/01 11:57:15;;;;;;;8.55;4.40;;;14.60;99.90;;;;;;5070712;28;20233;-67
2022/01/01 11:59:49;;;;;;;5.50;4.32;;;14.70;99.90;;;;;;5095568;28;20185;-67
2022/01/01 12:02:23;;;;;;;7.30;6.57;;;14.70;99.90;;;;;;5095691;28;20183;-67
2022/01/01 12:04:55;;;;;;;6.43;3.90;;;14.70;99.90;;;;;;5077341;28;20516;-67
2022/01/01 12:07:21;;;;;;;3.78;3.35;;;14.80;99.90;;;;;;5094636;28;20194;-67
2022/01/01 12:10:02;;;;;;;4.55;3.40;;;14.90;99.90;;;;;;5094900;28;20192;-66
2022/01/01 12:12:41;;;;;;;7.93;4.10;;;14.90;99.90;;;;;;5086872;28;20580;-67
2022/01/01 12:15:10;;;;;;;5.05;3.42;;;14.90;99.90;;;;;;5095041;28;20200;-67
2022/01/01 12:17:43;;;;;;;4.15;3.67;;;14.90;99.90;;;;;;5076897;28;20199;-67
2022/01/01 12:20:15;;;;;;;3.70;3.28;;;14.90;99.90;;;;;;5095010;28;20183;-67
2022/01/01 12:22:46;;;;;;;4.70;3.53;;;15.00;99.90;;;;;;5093982;28;20263;-67
2022/01/01 12:25:17;;;;;;;10.82;4.70;;;15.00;99.90;;;;;;5057144;28;20327;-68
2022/01/01 12:27:48;;;;;;;6.05;3.95;;;14.90;99.90;;;;;;5094820;28;20180;-67
2022/01/01 12:30:40;;;;;;;4.05;3.63;;;14.90;99.90;;;;;;5076750;28;20185;-67
2022/01/01 12:33:07;;;;;;;4.20;3.50;;;15.10;99.90;;;;;;5078615;28;20200;-67
2022/01/01 12:35:58;;;;;;;3.47;3.00;;;15.10;99.90;;;;;;5093571;28;20658;-67
2022/01/01 12:38:29;;;;;;;6.97;3.10;;;15.30;99.90;;;;;;5094745;28;20203;-67
2022/01/01 12:41:02;;;;;;;6.20;3.63;;;15.40;99.90;;;;;;5095107;28;20187;-67
2022/01/01 12:43:31;;;;;;;3.47;3.15;;;15.30;99.90;;;;;;5094549;28;20275;-67
2022/01/01 12:45:59;;;;;;;4.00;3.17;;;15.40;99.90;;;;;;5076846;28;20189;-67
2022/01/01 12:48:30;;;;;;;4.40;3.35;;;15.40;99.90;;;;;;5093935;28;20191;-67